sensor_id;sensor_type;location;lat;lon;timestamp;P1;durP1;ratioP1;P2;durP2;ratioP2
3571;SDS011;7958;53.024;12.970;2023-05-14T00:00:31;7.90;;;6.50;;
3571;SDS011;7958;53.024;12.970;2023-05-14T00:02:58;7.47;;;6.77;;
3571;SDS011;7958;53.024;12.970;2023-05-14T00:05:25;7.83;;;6.30;;
3571;SDS011;7958;53.024;12.970;2023-05-14T00:07:51;6.63;;;5.90;;
3571;SDS011;7958;53.024;12.970;2023-05-14T00:10:19;10.07;;;6.70;;
3571;SDS011;7958;53.024;12.970;2023-05-14T00:12:45;7.30;;;5.83;;
3571;SDS011;7958;53.024;12.970;2023-05-14T00:15:12;7.10;;;6.40;;
3571;SDS011;7958;53.024;12.970;2023-05-14T00:17:38;6.63;;;6.03;;
3571;SDS011;7958;53.024;12.970;2023-05-14T00:20:06;7.10;;;6.40;;
3571;SDS011;7958;53.024;12.970;2023-05-14T00:22:36;7.20;;;6.50;;
3571;SDS011;7958;53.024;12.970;2023-05-14T00:25:02;6.70;;;5.60;;
3571;SDS011;7958;53.024;12.970;2023-05-14T00:27:31;6.70;;;6.00;;
3571;SDS011;7958;53.024;12.970;2023-05-14T00:29:58;6.73;;;6.03;;
3571;SDS011;7958;53.024;12.970;2023-05-14T00:32:24;6.90;;;5.83;;
3571;SDS011;7958;53.024;12.970;2023-05-14T00:34:51;8.27;;;6.30;;
3571;SDS011;7958;53.024;12.970;2023-05-14T00:37:17;7.67;;;6.40;;
3571;SDS011;7958;53.024;12.970;2023-05-14T00:39:43;7.90;;;5.83;;
3571;SDS011;7958;53.024;12.970;2023-05-14T00:42:10;6.40;;;5.80;;
3571;SDS011;7958;53.024;12.970;2023-05-14T00:44:38;7.23;;;6.53;;
3571;SDS011;7958;53.024;12.970;2023-05-14T00:47:04;7.20;;;6.50;;
3571;SDS011;7958;53.024;12.970;2023-05-14T00:49:31;6.60;;;5.83;;
3571;SDS011;7958;53.024;12.970;2023-05-14T00:51:57;7.50;;;6.63;;
3571;SDS011;7958;53.024;12.970;2023-05-14T00:54:24;7.60;;;6.27;;
3571;SDS011;7958;53.024;12.970;2023-05-14T00:56:50;6.37;;;5.73;;
3571;SDS011;7958;53.024;12.970;2023-05-14T00:59:18;8.60;;;6.57;;
3571;SDS011;7958;53.024;12.970;2023-05-14T01:01:46;6.40;;;5.80;;
3571;SDS011;7958;53.024;12.970;2023-05-14T01:04:12;6.70;;;6.10;;
3571;SDS011;7958;53.024;12.970;2023-05-14T01:06:43;6.70;;;5.97;;
3571;SDS011;7958;53.024;12.970;2023-05-14T01:09:24;7.10;;;6.50;;
3571;SDS011;7958;53.024;12.970;2023-05-14T01:11:54;7.80;;;7.00;;
3571;SDS011;7958;53.024;12.970;2023-05-14T01:14:26;6.80;;;6.20;;
3571;SDS011;7958;53.024;12.970;2023-05-14T01:16:59;9.10;;;6.90;;
3571;SDS011;7958;53.024;12.970;2023-05-14T01:19:28;6.97;;;6.30;;
3571;SDS011;7958;53.024;12.970;2023-05-14T01:22:00;7.47;;;6.50;;
3571;SDS011;7958;53.024;12.970;2023-05-14T01:24:26;7.87;;;6.60;;
3571;SDS011;7958;53.024;12.970;2023-05-14T01:26:53;7.63;;;6.80;;
3571;SDS011;7958;53.024;12.970;2023-05-14T01:29:22;7.80;;;6.40;;
3571;SDS011;7958;53.024;12.970;2023-05-14T01:31:52;7.40;;;6.70;;
3571;SDS011;7958;53.024;12.970;2023-05-14T01:34:21;8.17;;;7.37;;
3571;SDS011;7958;53.024;12.970;2023-05-14T01:36:48;8.00;;;6.67;;
3571;SDS011;7958;53.024;12.970;2023-05-14T01:39:16;8.03;;;7.30;;
3571;SDS011;7958;53.024;12.970;2023-05-14T01:41:44;6.93;;;6.33;;
3571;SDS011;7958;53.024;12.970;2023-05-14T01:44:11;7.23;;;6.53;;
3571;SDS011;7958;53.024;12.970;2023-05-14T01:46:38;7.60;;;6.90;;
3571;SDS011;7958;53.024;12.970;2023-05-14T01:49:04;8.80;;;6.37;;
3571;SDS011;7958;53.024;12.970;2023-05-14T01:51:31;6.73;;;6.20;;
3571;SDS011;7958;53.024;12.970;2023-05-14T01:53:57;7.77;;;6.97;;
3571;SDS011;7958;53.024;12.970;2023-05-14T01:56:25;7.17;;;6.57;;
3571;SDS011;7958;53.024;12.970;2023-05-14T01:58:52;7.73;;;7.00;;
3571;SDS011;7958;53.024;12.970;2023-05-14T02:01:19;8.10;;;7.40;;
3571;SDS011;7958;53.024;12.970;2023-05-14T02:03:46;12.70;;;7.13;;
3571;SDS011;7958;53.024;12.970;2023-05-14T02:06:12;7.70;;;6.90;;
3571;SDS011;7958;53.024;12.970;2023-05-14T02:08:39;10.23;;;7.53;;
3571;SDS011;7958;53.024;12.970;2023-05-14T02:11:06;8.57;;;7.77;;
3571;SDS011;7958;53.024;12.970;2023-05-14T02:13:34;6.83;;;5.90;;
3571;SDS011;7958;53.024;12.970;2023-05-14T02:16:01;9.37;;;7.47;;
3571;SDS011;7958;53.024;12.970;2023-05-14T02:18:28;8.23;;;6.90;;
3571;SDS011;7958;53.024;12.970;2023-05-14T02:20:54;7.10;;;6.40;;
3571;SDS011;7958;53.024;12.970;2023-05-14T02:23:21;9.03;;;7.50;;
3571;SDS011;7958;53.024;12.970;2023-05-14T02:25:48;11.20;;;7.90;;
3571;SDS011;7958;53.024;12.970;2023-05-14T02:28:14;7.70;;;6.90;;
3571;SDS011;7958;53.024;12.970;2023-05-14T02:30:42;8.13;;;7.07;;
3571;SDS011;7958;53.024;12.970;2023-05-14T02:33:08;6.83;;;6.20;;
3571;SDS011;7958;53.024;12.970;2023-05-14T02:35:35;7.53;;;6.83;;
3571;SDS011;7958;53.024;12.970;2023-05-14T02:38:02;7.77;;;7.07;;
3571;SDS011;7958;53.024;12.970;2023-05-14T02:40:29;7.00;;;6.30;;
3571;SDS011;7958;53.024;12.970;2023-05-14T02:42:55;7.60;;;6.60;;
3571;SDS011;7958;53.024;12.970;2023-05-14T02:45:22;7.03;;;6.43;;
3571;SDS011;7958;53.024;12.970;2023-05-14T02:47:50;6.83;;;6.23;;
3571;SDS011;7958;53.024;12.970;2023-05-14T02:50:16;7.50;;;6.70;;
3571;SDS011;7958;53.024;12.970;2023-05-14T02:52:42;6.97;;;6.27;;
3571;SDS011;7958;53.024;12.970;2023-05-14T02:55:09;5.90;;;5.37;;
3571;SDS011;7958;53.024;12.970;2023-05-14T02:57:37;7.83;;;6.47;;
3571;SDS011;7958;53.024;12.970;2023-05-14T03:00:04;6.87;;;6.20;;
3571;SDS011;7958;53.024;12.970;2023-05-14T03:02:31;7.70;;;6.30;;
3571;SDS011;7958;53.024;12.970;2023-05-14T03:04:59;7.20;;;5.50;;
3571;SDS011;7958;53.024;12.970;2023-05-14T03:07:26;6.43;;;5.83;;
3571;SDS011;7958;53.024;12.970;2023-05-14T03:09:53;6.53;;;5.40;;
3571;SDS011;7958;53.024;12.970;2023-05-14T03:12:19;6.33;;;5.73;;
3571;SDS011;7958;53.024;12.970;2023-05-14T03:14:46;7.30;;;6.20;;
3571;SDS011;7958;53.024;12.970;2023-05-14T03:17:12;6.20;;;5.70;;
3571;SDS011;7958;53.024;12.970;2023-05-14T03:19:38;6.63;;;5.90;;
3571;SDS011;7958;53.024;12.970;2023-05-14T03:22:06;6.73;;;6.10;;
3571;SDS011;7958;53.024;12.970;2023-05-14T03:24:33;6.67;;;6.07;;
3571;SDS011;7958;53.024;12.970;2023-05-14T03:26:59;9.60;;;6.43;;
3571;SDS011;7958;53.024;12.970;2023-05-14T03:29:26;7.60;;;6.00;;
3571;SDS011;7958;53.024;12.970;2023-05-14T03:31:52;7.17;;;6.57;;
3571;SDS011;7958;53.024;12.970;2023-05-14T03:34:18;6.10;;;5.53;;
3571;SDS011;7958;53.024;12.970;2023-05-14T03:36:45;6.50;;;5.70;;
3571;SDS011;7958;53.024;12.970;2023-05-14T03:39:13;6.53;;;5.93;;
3571;SDS011;7958;53.024;12.970;2023-05-14T03:41:43;7.43;;;6.73;;
3571;SDS011;7958;53.024;12.970;2023-05-14T03:44:10;6.97;;;6.33;;
3571;SDS011;7958;53.024;12.970;2023-05-14T03:46:36;6.03;;;5.50;;
3571;SDS011;7958;53.024;12.970;2023-05-14T03:49:03;6.30;;;5.70;;
3571;SDS011;7958;53.024;12.970;2023-05-14T03:51:29;11.23;;;6.40;;
3571;SDS011;7958;53.024;12.970;2023-05-14T03:53:56;6.73;;;6.00;;
3571;SDS011;7958;53.024;12.970;2023-05-14T03:56:24;6.97;;;5.97;;
3571;SDS011;7958;53.024;12.970;2023-05-14T03:58:50;6.77;;;5.87;;
3571;SDS011;7958;53.024;12.970;2023-05-14T04:01:17;8.10;;;6.30;;
3571;SDS011;7958;53.024;12.970;2023-05-14T04:03:43;5.63;;;5.17;;
3571;SDS011;7958;53.024;12.970;2023-05-14T04:06:10;6.40;;;5.77;;
3571;SDS011;7958;53.024;12.970;2023-05-14T04:08:37;7.03;;;5.80;;
3571;SDS011;7958;53.024;12.970;2023-05-14T04:11:03;6.30;;;5.70;;
3571;SDS011;7958;53.024;12.970;2023-05-14T04:13:31;6.30;;;5.80;;
3571;SDS011;7958;53.024;12.970;2023-05-14T04:15:58;6.43;;;5.37;;
3571;SDS011;7958;53.024;12.970;2023-05-14T04:18:24;5.60;;;5.20;;
3571;SDS011;7958;53.024;12.970;2023-05-14T04:20:51;9.27;;;5.90;;
3571;SDS011;7958;53.024;12.970;2023-05-14T04:23:17;6.27;;;5.70;;
3571;SDS011;7958;53.024;12.970;2023-05-14T04:25:44;6.67;;;4.87;;
3571;SDS011;7958;53.024;12.970;2023-05-14T04:28:10;6.40;;;5.77;;
3571;SDS011;7958;53.024;12.970;2023-05-14T04:30:38;6.03;;;5.53;;
3571;SDS011;7958;53.024;12.970;2023-05-14T04:33:05;7.97;;;6.20;;
3571;SDS011;7958;53.024;12.970;2023-05-14T04:35:32;7.63;;;6.30;;
3571;SDS011;7958;53.024;12.970;2023-05-14T04:37:58;6.70;;;6.00;;
3571;SDS011;7958;53.024;12.970;2023-05-14T04:40:25;5.93;;;5.33;;
3571;SDS011;7958;53.024;12.970;2023-05-14T04:42:51;6.10;;;5.60;;
3571;SDS011;7958;53.024;12.970;2023-05-14T04:45:18;8.40;;;5.73;;
3571;SDS011;7958;53.024;12.970;2023-05-14T04:47:46;6.23;;;5.60;;
3571;SDS011;7958;53.024;12.970;2023-05-14T04:50:13;11.50;;;5.40;;
3571;SDS011;7958;53.024;12.970;2023-05-14T04:52:40;6.57;;;5.20;;
3571;SDS011;7958;53.024;12.970;2023-05-14T04:55:07;6.50;;;5.70;;
3571;SDS011;7958;53.024;12.970;2023-05-14T04:57:34;6.23;;;5.60;;
3571;SDS011;7958;53.024;12.970;2023-05-14T05:00:01;6.87;;;6.10;;
3571;SDS011;7958;53.024;12.970;2023-05-14T05:02:29;6.73;;;6.00;;
3571;SDS011;7958;53.024;12.970;2023-05-14T05:04:57;4.97;;;4.57;;
3571;SDS011;7958;53.024;12.970;2023-05-14T05:07:23;9.33;;;5.90;;
3571;SDS011;7958;53.024;12.970;2023-05-14T05:09:50;8.50;;;6.33;;
3571;SDS011;7958;53.024;12.970;2023-05-14T05:12:16;5.80;;;5.30;;
3571;SDS011;7958;53.024;12.970;2023-05-14T05:14:43;6.20;;;5.60;;
3571;SDS011;7958;53.024;12.970;2023-05-14T05:17:09;7.17;;;6.47;;
3571;SDS011;7958;53.024;12.970;2023-05-14T05:19:36;6.83;;;6.13;;
3571;SDS011;7958;53.024;12.970;2023-05-14T05:22:05;6.17;;;5.60;;
3571;SDS011;7958;53.024;12.970;2023-05-14T05:24:31;5.90;;;5.37;;
3571;SDS011;7958;53.024;12.970;2023-05-14T05:26:58;6.37;;;5.87;;
3571;SDS011;7958;53.024;12.970;2023-05-14T05:29:24;6.17;;;5.57;;
3571;SDS011;7958;53.024;12.970;2023-05-14T05:31:50;6.47;;;5.77;;
3571;SDS011;7958;53.024;12.970;2023-05-14T05:34:17;6.70;;;5.70;;
3571;SDS011;7958;53.024;12.970;2023-05-14T05:36:44;6.97;;;5.20;;
3571;SDS011;7958;53.024;12.970;2023-05-14T05:39:12;6.03;;;5.20;;
3571;SDS011;7958;53.024;12.970;2023-05-14T05:41:38;5.43;;;4.30;;
3571;SDS011;7958;53.024;12.970;2023-05-14T05:44:04;5.63;;;5.10;;
3571;SDS011;7958;53.024;12.970;2023-05-14T05:46:31;5.40;;;4.27;;
3571;SDS011;7958;53.024;12.970;2023-05-14T05:48:57;9.43;;;4.77;;
3571;SDS011;7958;53.024;12.970;2023-05-14T05:51:23;6.30;;;4.90;;
3571;SDS011;7958;53.024;12.970;2023-05-14T05:53:50;7.80;;;4.73;;
3571;SDS011;7958;53.024;12.970;2023-05-14T05:56:18;13.90;;;4.70;;
3571;SDS011;7958;53.024;12.970;2023-05-14T05:58:45;8.77;;;4.63;;
3571;SDS011;7958;53.024;12.970;2023-05-14T06:01:11;4.37;;;3.87;;
3571;SDS011;7958;53.024;12.970;2023-05-14T06:03:38;4.67;;;4.00;;
3571;SDS011;7958;53.024;12.970;2023-05-14T06:06:05;4.37;;;3.97;;
3571;SDS011;7958;53.024;12.970;2023-05-14T06:08:31;6.53;;;4.43;;
3571;SDS011;7958;53.024;12.970;2023-05-14T06:10:58;8.43;;;4.47;;
3571;SDS011;7958;53.024;12.970;2023-05-14T06:13:26;4.43;;;4.03;;
3571;SDS011;7958;53.024;12.970;2023-05-14T06:15:52;5.20;;;4.50;;
3571;SDS011;7958;53.024;12.970;2023-05-14T06:18:18;5.80;;;4.43;;
3571;SDS011;7958;53.024;12.970;2023-05-14T06:20:45;6.23;;;4.37;;
3571;SDS011;7958;53.024;12.970;2023-05-14T06:23:11;4.93;;;4.30;;
3571;SDS011;7958;53.024;12.970;2023-05-14T06:25:37;6.67;;;4.13;;
3571;SDS011;7958;53.024;12.970;2023-05-14T06:28:04;4.57;;;4.17;;
3571;SDS011;7958;53.024;12.970;2023-05-14T06:30:32;7.50;;;4.33;;
3571;SDS011;7958;53.024;12.970;2023-05-14T06:32:58;7.50;;;3.90;;
3571;SDS011;7958;53.024;12.970;2023-05-14T06:35:25;4.53;;;4.10;;
3571;SDS011;7958;53.024;12.970;2023-05-14T06:37:51;5.27;;;4.27;;
3571;SDS011;7958;53.024;12.970;2023-05-14T06:40:17;5.00;;;3.70;;
3571;SDS011;7958;53.024;12.970;2023-05-14T06:42:44;5.23;;;3.60;;
3571;SDS011;7958;53.024;12.970;2023-05-14T06:45:10;6.20;;;3.80;;
3571;SDS011;7958;53.024;12.970;2023-05-14T06:47:38;6.60;;;4.63;;
3571;SDS011;7958;53.024;12.970;2023-05-14T06:50:05;4.20;;;3.70;;
3571;SDS011;7958;53.024;12.970;2023-05-14T06:52:32;4.00;;;3.47;;
3571;SDS011;7958;53.024;12.970;2023-05-14T06:54:58;4.27;;;3.83;;
3571;SDS011;7958;53.024;12.970;2023-05-14T06:57:25;5.17;;;3.97;;
3571;SDS011;7958;53.024;12.970;2023-05-14T06:59:52;6.10;;;3.97;;
3571;SDS011;7958;53.024;12.970;2023-05-14T07:02:18;9.67;;;3.80;;
3571;SDS011;7958;53.024;12.970;2023-05-14T07:04:46;4.57;;;3.67;;
3571;SDS011;7958;53.024;12.970;2023-05-14T07:07:12;9.43;;;3.90;;
3571;SDS011;7958;53.024;12.970;2023-05-14T07:09:42;6.43;;;4.20;;
3571;SDS011;7958;53.024;12.970;2023-05-14T07:12:08;5.27;;;3.80;;
3571;SDS011;7958;53.024;12.970;2023-05-14T07:14:34;3.90;;;3.60;;
3571;SDS011;7958;53.024;12.970;2023-05-14T07:17:01;4.97;;;3.30;;
3571;SDS011;7958;53.024;12.970;2023-05-14T07:19:28;6.03;;;3.67;;
3571;SDS011;7958;53.024;12.970;2023-05-14T07:21:56;3.37;;;3.07;;
3571;SDS011;7958;53.024;12.970;2023-05-14T07:24:22;3.53;;;3.23;;
3571;SDS011;7958;53.024;12.970;2023-05-14T07:26:49;4.60;;;3.60;;
3571;SDS011;7958;53.024;12.970;2023-05-14T07:29:15;4.00;;;3.50;;
3571;SDS011;7958;53.024;12.970;2023-05-14T07:31:42;4.93;;;3.60;;
3571;SDS011;7958;53.024;12.970;2023-05-14T07:34:08;8.90;;;3.60;;
3571;SDS011;7958;53.024;12.970;2023-05-14T07:36:35;9.97;;;4.30;;
3571;SDS011;7958;53.024;12.970;2023-05-14T07:39:03;6.37;;;4.33;;
3571;SDS011;7958;53.024;12.970;2023-05-14T07:41:29;9.23;;;4.43;;
3571;SDS011;7958;53.024;12.970;2023-05-14T07:43:56;3.90;;;3.50;;
3571;SDS011;7958;53.024;12.970;2023-05-14T07:46:22;4.23;;;3.50;;
3571;SDS011;7958;53.024;12.970;2023-05-14T07:48:49;9.40;;;3.60;;
3571;SDS011;7958;53.024;12.970;2023-05-14T07:51:16;5.43;;;3.27;;
3571;SDS011;7958;53.024;12.970;2023-05-14T07:53:42;4.70;;;3.97;;
3571;SDS011;7958;53.024;12.970;2023-05-14T07:56:10;6.53;;;4.13;;
3571;SDS011;7958;53.024;12.970;2023-05-14T07:58:37;18.60;;;8.10;;
3571;SDS011;7958;53.024;12.970;2023-05-14T08:01:04;4.93;;;3.77;;
3571;SDS011;7958;53.024;12.970;2023-05-14T08:03:33;7.27;;;3.83;;
3571;SDS011;7958;53.024;12.970;2023-05-14T08:05:59;14.70;;;5.80;;
3571;SDS011;7958;53.024;12.970;2023-05-14T08:08:26;4.03;;;3.23;;
3571;SDS011;7958;53.024;12.970;2023-05-14T08:10:52;5.00;;;3.80;;
3571;SDS011;7958;53.024;12.970;2023-05-14T08:13:21;20.63;;;7.13;;
3571;SDS011;7958;53.024;12.970;2023-05-14T08:15:47;8.33;;;4.60;;
3571;SDS011;7958;53.024;12.970;2023-05-14T08:18:13;8.63;;;4.30;;
3571;SDS011;7958;53.024;12.970;2023-05-14T08:20:40;18.50;;;4.20;;
3571;SDS011;7958;53.024;12.970;2023-05-14T08:23:07;7.13;;;3.17;;
3571;SDS011;7958;53.024;12.970;2023-05-14T08:25:33;5.80;;;3.40;;
3571;SDS011;7958;53.024;12.970;2023-05-14T08:27:59;5.43;;;3.80;;
3571;SDS011;7958;53.024;12.970;2023-05-14T08:30:27;7.93;;;3.90;;
3571;SDS011;7958;53.024;12.970;2023-05-14T08:32:54;3.80;;;3.47;;
3571;SDS011;7958;53.024;12.970;2023-05-14T08:35:21;5.23;;;3.83;;
3571;SDS011;7958;53.024;12.970;2023-05-14T08:37:47;6.23;;;3.40;;
3571;SDS011;7958;53.024;12.970;2023-05-14T08:40:15;3.23;;;3.03;;
3571;SDS011;7958;53.024;12.970;2023-05-14T08:42:42;5.43;;;3.43;;
3571;SDS011;7958;53.024;12.970;2023-05-14T08:45:10;6.80;;;3.90;;
3571;SDS011;7958;53.024;12.970;2023-05-14T08:47:41;4.30;;;3.50;;
3571;SDS011;7958;53.024;12.970;2023-05-14T08:50:10;3.87;;;3.40;;
3571;SDS011;7958;53.024;12.970;2023-05-14T08:52:36;3.67;;;3.37;;
3571;SDS011;7958;53.024;12.970;2023-05-14T08:55:03;7.00;;;3.80;;
3571;SDS011;7958;53.024;12.970;2023-05-14T08:57:31;7.23;;;4.07;;
3571;SDS011;7958;53.024;12.970;2023-05-14T08:59:58;11.30;;;3.43;;
3571;SDS011;7958;53.024;12.970;2023-05-14T09:02:26;8.07;;;3.57;;
3571;SDS011;7958;53.024;12.970;2023-05-14T09:04:56;3.57;;;3.30;;
3571;SDS011;7958;53.024;12.970;2023-05-14T09:07:24;7.20;;;3.40;;
3571;SDS011;7958;53.024;12.970;2023-05-14T09:09:52;3.47;;;3.17;;
3571;SDS011;7958;53.024;12.970;2023-05-14T09:12:19;3.70;;;3.40;;
3571;SDS011;7958;53.024;12.970;2023-05-14T09:14:47;4.30;;;3.50;;
3571;SDS011;7958;53.024;12.970;2023-05-14T09:17:14;5.53;;;3.10;;
3571;SDS011;7958;53.024;12.970;2023-05-14T09:19:41;5.73;;;3.30;;
3571;SDS011;7958;53.024;12.970;2023-05-14T09:22:12;5.60;;;2.90;;
3571;SDS011;7958;53.024;12.970;2023-05-14T09:24:39;4.60;;;3.00;;
3571;SDS011;7958;53.024;12.970;2023-05-14T09:27:07;4.50;;;3.10;;
3571;SDS011;7958;53.024;12.970;2023-05-14T09:29:34;4.87;;;3.10;;
3571;SDS011;7958;53.024;12.970;2023-05-14T09:32:01;5.23;;;3.23;;
3571;SDS011;7958;53.024;12.970;2023-05-14T09:34:31;3.53;;;3.20;;
3571;SDS011;7958;53.024;12.970;2023-05-14T09:37:02;4.10;;;3.30;;
3571;SDS011;7958;53.024;12.970;2023-05-14T09:39:32;4.50;;;3.33;;
3571;SDS011;7958;53.024;12.970;2023-05-14T09:42:00;6.80;;;2.97;;
3571;SDS011;7958;53.024;12.970;2023-05-14T09:44:27;3.10;;;2.80;;
3571;SDS011;7958;53.024;12.970;2023-05-14T09:46:53;5.83;;;3.17;;
3571;SDS011;7958;53.024;12.970;2023-05-14T09:49:21;3.23;;;2.93;;
3571;SDS011;7958;53.024;12.970;2023-05-14T09:51:47;3.47;;;2.87;;
3571;SDS011;7958;53.024;12.970;2023-05-14T09:54:14;4.97;;;2.90;;
3571;SDS011;7958;53.024;12.970;2023-05-14T09:56:42;3.13;;;2.83;;
3571;SDS011;7958;53.024;12.970;2023-05-14T09:59:09;3.80;;;3.17;;
3571;SDS011;7958;53.024;12.970;2023-05-14T10:01:36;3.57;;;2.97;;
3571;SDS011;7958;53.024;12.970;2023-05-14T10:04:07;4.90;;;2.80;;
3571;SDS011;7958;53.024;12.970;2023-05-14T10:06:35;6.30;;;2.90;;
3571;SDS011;7958;53.024;12.970;2023-05-14T10:09:04;3.63;;;2.57;;
3571;SDS011;7958;53.024;12.970;2023-05-14T10:11:36;3.73;;;3.10;;
3571;SDS011;7958;53.024;12.970;2023-05-14T10:14:08;3.63;;;3.23;;
3571;SDS011;7958;53.024;12.970;2023-05-14T10:16:42;8.63;;;3.63;;
3571;SDS011;7958;53.024;12.970;2023-05-14T10:19:13;4.17;;;2.90;;
3571;SDS011;7958;53.024;12.970;2023-05-14T10:21:46;3.40;;;2.97;;
3571;SDS011;7958;53.024;12.970;2023-05-14T10:24:14;3.13;;;2.80;;
3571;SDS011;7958;53.024;12.970;2023-05-14T10:26:51;5.30;;;3.43;;
3571;SDS011;7958;53.024;12.970;2023-05-14T10:29:18;3.10;;;2.90;;
3571;SDS011;7958;53.024;12.970;2023-05-14T10:31:46;2.80;;;2.50;;
3571;SDS011;7958;53.024;12.970;2023-05-14T10:34:32;4.70;;;2.73;;
3571;SDS011;7958;53.024;12.970;2023-05-14T10:37:01;3.83;;;2.90;;
3571;SDS011;7958;53.024;12.970;2023-05-14T10:39:38;2.80;;;2.60;;
3571;SDS011;7958;53.024;12.970;2023-05-14T10:42:09;3.67;;;2.87;;
3571;SDS011;7958;53.024;12.970;2023-05-14T10:44:39;5.33;;;2.73;;
3571;SDS011;7958;53.024;12.970;2023-05-14T10:47:08;5.70;;;2.87;;
3571;SDS011;7958;53.024;12.970;2023-05-14T10:49:34;3.83;;;3.03;;
3571;SDS011;7958;53.024;12.970;2023-05-14T10:52:00;2.90;;;2.70;;
3571;SDS011;7958;53.024;12.970;2023-05-14T10:54:27;4.30;;;3.40;;
3571;SDS011;7958;53.024;12.970;2023-05-14T10:57:03;4.20;;;3.07;;
3571;SDS011;7958;53.024;12.970;2023-05-14T10:59:35;3.17;;;2.90;;
3571;SDS011;7958;53.024;12.970;2023-05-14T11:02:05;5.63;;;2.90;;
3571;SDS011;7958;53.024;12.970;2023-05-14T11:04:49;3.10;;;2.80;;
3571;SDS011;7958;53.024;12.970;2023-05-14T11:07:21;4.73;;;3.00;;
3571;SDS011;7958;53.024;12.970;2023-05-14T11:09:49;5.33;;;3.20;;
3571;SDS011;7958;53.024;12.970;2023-05-14T11:12:16;4.50;;;3.60;;
3571;SDS011;7958;53.024;12.970;2023-05-14T11:14:43;6.07;;;4.10;;
3571;SDS011;7958;53.024;12.970;2023-05-14T11:17:11;6.07;;;3.40;;
3571;SDS011;7958;53.024;12.970;2023-05-14T11:19:37;11.20;;;3.80;;
3571;SDS011;7958;53.024;12.970;2023-05-14T11:22:04;3.63;;;3.30;;
3571;SDS011;7958;53.024;12.970;2023-05-14T11:24:31;3.20;;;2.90;;
3571;SDS011;7958;53.024;12.970;2023-05-14T11:26:58;8.80;;;3.83;;
3571;SDS011;7958;53.024;12.970;2023-05-14T11:29:27;7.90;;;3.70;;
3571;SDS011;7958;53.024;12.970;2023-05-14T11:31:54;4.00;;;3.10;;
3571;SDS011;7958;53.024;12.970;2023-05-14T11:34:25;7.13;;;3.70;;
3571;SDS011;7958;53.024;12.970;2023-05-14T11:36:51;9.90;;;3.40;;
3571;SDS011;7958;53.024;12.970;2023-05-14T11:39:17;6.37;;;3.47;;
3571;SDS011;7958;53.024;12.970;2023-05-14T11:41:44;4.10;;;3.67;;
3571;SDS011;7958;53.024;12.970;2023-05-14T11:44:11;4.67;;;3.50;;
3571;SDS011;7958;53.024;12.970;2023-05-14T11:46:37;5.23;;;3.30;;
3571;SDS011;7958;53.024;12.970;2023-05-14T11:49:04;4.83;;;3.70;;
3571;SDS011;7958;53.024;12.970;2023-05-14T11:51:32;7.43;;;3.90;;
3571;SDS011;7958;53.024;12.970;2023-05-14T11:53:59;6.00;;;3.67;;
3571;SDS011;7958;53.024;12.970;2023-05-14T11:56:27;8.20;;;3.60;;
3571;SDS011;7958;53.024;12.970;2023-05-14T11:58:54;4.90;;;3.30;;
3571;SDS011;7958;53.024;12.970;2023-05-14T12:01:22;4.50;;;3.27;;
3571;SDS011;7958;53.024;12.970;2023-05-14T12:03:49;5.27;;;3.27;;
3571;SDS011;7958;53.024;12.970;2023-05-14T12:06:29;5.20;;;3.40;;
3571;SDS011;7958;53.024;12.970;2023-05-14T12:09:00;6.40;;;3.67;;
3571;SDS011;7958;53.024;12.970;2023-05-14T12:11:29;6.73;;;3.17;;
3571;SDS011;7958;53.024;12.970;2023-05-14T12:13:55;5.53;;;3.23;;
3571;SDS011;7958;53.024;12.970;2023-05-14T12:16:28;7.00;;;3.53;;
3571;SDS011;7958;53.024;12.970;2023-05-14T12:18:58;4.43;;;2.90;;
3571;SDS011;7958;53.024;12.970;2023-05-14T12:21:25;7.20;;;3.23;;
3571;SDS011;7958;53.024;12.970;2023-05-14T12:23:55;6.23;;;3.10;;
3571;SDS011;7958;53.024;12.970;2023-05-14T12:26:25;5.33;;;4.03;;
3571;SDS011;7958;53.024;12.970;2023-05-14T12:28:55;9.17;;;3.37;;
3571;SDS011;7958;53.024;12.970;2023-05-14T12:31:26;4.93;;;3.10;;
3571;SDS011;7958;53.024;12.970;2023-05-14T12:33:53;7.80;;;3.67;;
3571;SDS011;7958;53.024;12.970;2023-05-14T12:36:19;4.47;;;3.10;;
3571;SDS011;7958;53.024;12.970;2023-05-14T12:38:49;5.27;;;3.20;;
3571;SDS011;7958;53.024;12.970;2023-05-14T12:41:15;4.50;;;3.33;;
3571;SDS011;7958;53.024;12.970;2023-05-14T12:43:44;7.23;;;3.40;;
3571;SDS011;7958;53.024;12.970;2023-05-14T12:46:13;7.47;;;3.63;;
3571;SDS011;7958;53.024;12.970;2023-05-14T12:48:39;6.97;;;3.47;;
3571;SDS011;7958;53.024;12.970;2023-05-14T12:51:05;6.63;;;3.73;;
3571;SDS011;7958;53.024;12.970;2023-05-14T12:53:32;5.07;;;3.20;;
3571;SDS011;7958;53.024;12.970;2023-05-14T12:55:59;6.90;;;3.20;;
3571;SDS011;7958;53.024;12.970;2023-05-14T12:58:25;10.40;;;3.47;;
3571;SDS011;7958;53.024;12.970;2023-05-14T13:00:59;3.70;;;3.33;;
3571;SDS011;7958;53.024;12.970;2023-05-14T13:03:26;3.73;;;3.03;;
3571;SDS011;7958;53.024;12.970;2023-05-14T13:05:53;6.83;;;3.67;;
3571;SDS011;7958;53.024;12.970;2023-05-14T13:08:20;6.87;;;3.23;;
3571;SDS011;7958;53.024;12.970;2023-05-14T13:10:50;4.80;;;3.50;;
3571;SDS011;7958;53.024;12.970;2023-05-14T13:13:16;10.10;;;3.60;;
3571;SDS011;7958;53.024;12.970;2023-05-14T13:15:43;4.03;;;3.33;;
3571;SDS011;7958;53.024;12.970;2023-05-14T13:18:15;3.17;;;2.90;;
3571;SDS011;7958;53.024;12.970;2023-05-14T13:20:43;6.53;;;3.30;;
3571;SDS011;7958;53.024;12.970;2023-05-14T13:23:10;4.50;;;3.80;;
3571;SDS011;7958;53.024;12.970;2023-05-14T13:25:36;5.87;;;3.60;;
3571;SDS011;7958;53.024;12.970;2023-05-14T13:28:03;6.70;;;3.63;;
3571;SDS011;7958;53.024;12.970;2023-05-14T13:30:31;8.90;;;3.30;;
3571;SDS011;7958;53.024;12.970;2023-05-14T13:32:58;8.60;;;3.60;;
3571;SDS011;7958;53.024;12.970;2023-05-14T13:35:28;4.23;;;3.40;;
3571;SDS011;7958;53.024;12.970;2023-05-14T13:37:57;5.60;;;3.60;;
3571;SDS011;7958;53.024;12.970;2023-05-14T13:40:23;6.13;;;3.90;;
3571;SDS011;7958;53.024;12.970;2023-05-14T13:42:50;4.60;;;3.93;;
3571;SDS011;7958;53.024;12.970;2023-05-14T13:45:19;7.90;;;4.07;;
3571;SDS011;7958;53.024;12.970;2023-05-14T13:47:46;4.87;;;3.90;;
3571;SDS011;7958;53.024;12.970;2023-05-14T13:50:12;5.03;;;4.27;;
3571;SDS011;7958;53.024;12.970;2023-05-14T13:52:40;8.00;;;4.10;;
3571;SDS011;7958;53.024;12.970;2023-05-14T13:55:07;5.30;;;3.53;;
3571;SDS011;7958;53.024;12.970;2023-05-14T13:57:33;6.10;;;4.30;;
3571;SDS011;7958;53.024;12.970;2023-05-14T13:59:59;8.60;;;4.00;;
3571;SDS011;7958;53.024;12.970;2023-05-14T14:02:26;7.43;;;4.30;;
3571;SDS011;7958;53.024;12.970;2023-05-14T14:04:54;5.43;;;4.10;;
3571;SDS011;7958;53.024;12.970;2023-05-14T14:07:22;9.70;;;4.43;;
3571;SDS011;7958;53.024;12.970;2023-05-14T14:09:49;4.70;;;4.10;;
3571;SDS011;7958;53.024;12.970;2023-05-14T14:12:19;5.80;;;4.27;;
3571;SDS011;7958;53.024;12.970;2023-05-14T14:14:47;5.40;;;4.40;;
3571;SDS011;7958;53.024;12.970;2023-05-14T14:17:18;6.80;;;3.93;;
3571;SDS011;7958;53.024;12.970;2023-05-14T14:19:44;5.83;;;4.07;;
3571;SDS011;7958;53.024;12.970;2023-05-14T14:22:11;6.20;;;3.90;;
3571;SDS011;7958;53.024;12.970;2023-05-14T14:24:43;10.30;;;4.37;;
3571;SDS011;7958;53.024;12.970;2023-05-14T14:27:18;6.33;;;3.80;;
3571;SDS011;7958;53.024;12.970;2023-05-14T14:29:46;9.20;;;3.50;;
3571;SDS011;7958;53.024;12.970;2023-05-14T14:32:12;5.40;;;4.03;;
3571;SDS011;7958;53.024;12.970;2023-05-14T14:34:39;6.90;;;4.07;;
3571;SDS011;7958;53.024;12.970;2023-05-14T14:37:05;4.57;;;4.17;;
3571;SDS011;7958;53.024;12.970;2023-05-14T14:39:31;6.80;;;4.33;;
3571;SDS011;7958;53.024;12.970;2023-05-14T14:42:00;8.40;;;4.30;;
3571;SDS011;7958;53.024;12.970;2023-05-14T14:44:30;6.83;;;3.60;;
3571;SDS011;7958;53.024;12.970;2023-05-14T14:46:57;9.07;;;4.00;;
3571;SDS011;7958;53.024;12.970;2023-05-14T14:49:23;9.43;;;4.40;;
3571;SDS011;7958;53.024;12.970;2023-05-14T14:51:49;5.87;;;3.90;;
3571;SDS011;7958;53.024;12.970;2023-05-14T14:54:16;4.23;;;3.67;;
3571;SDS011;7958;53.024;12.970;2023-05-14T14:56:42;9.60;;;3.70;;
3571;SDS011;7958;53.024;12.970;2023-05-14T14:59:09;5.90;;;4.13;;
3571;SDS011;7958;53.024;12.970;2023-05-14T15:01:37;5.67;;;3.40;;